Time,TemperatureF,DewpointF,PressureIn,WindDirection,WindDirectionDegrees,WindSpeedMPH,WindSpeedGustMPH,Humidity,HourlyPrecipIn,Conditions,Clouds,dailyrainin,SoftwareType,DateUTC
2013-05-10 00:06:00,65.9,56.0,30.12,ENE,58,0.0,-999.0,71,-99.99,,,0.00,weatherlink.com 1.10,2013-05-10 04:06:00,
2013-05-10 00:21:00,65.7,56.0,30.12,SSE,149,0.0,-999.0,71,-99.99,,,0.00,weatherlink.com 1.10,2013-05-10 04:21:00,
2013-05-10 00:36:00,65.7,56.0,30.13,SW,214,0.0,-999.0,71,-99.99,,,0.00,weatherlink.com 1.10,2013-05-10 04:36:00,
2013-05-10 00:51:00,65.8,56.0,30.13,West,273,0.0,-999.0,71,-99.99,,,0.00,weatherlink.com 1.10,2013-05-10 04:51:00,
2013-05-10 01:06:00,65.6,56.0,30.12,SW,214,0.0,-999.0,72,-99.99,,,0.00,weatherlink.com 1.10,2013-05-10 05:06:00,
2013-05-10 01:21:00,65.7,56.0,30.12,NNE,12,1.0,-999.0,71,-99.99,,,0.00,weatherlink.com 1.10,2013-05-10 05:21:00,
2013-05-10 01:36:00,65.9,56.0,30.12,NE,53,0.0,-999.0,71,-99.99,,,0.00,weatherlink.com 1.10,2013-05-10 05:36:00,
2013-05-10 01:51:00,66.1,56.0,30.11,North,6,1.0,-999.0,71,-99.99,,,0.00,weatherlink.com 1.10,2013-05-10 05:51:00,
2013-05-10 02:06:00,66.1,56.0,30.11,NNE,13,0.0,-999.0,70,-99.99,,,0.00,weatherlink.com 1.10,2013-05-10 06:06:00,
2013-05-10 02:21:00,65.5,56.0,30.10,NNE,15,0.0,-999.0,72,-99.99,,,0.00,weatherlink.com 1.10,2013-05-10 06:21:00,
2013-05-10 02:36:00,65.0,56.0,30.10,NNE,15,0.0,-999.0,73,-99.99,,,0.00,weatherlink.com 1.10,2013-05-10 06:36:00,
2013-05-10 02:51:00,64.7,56.0,30.10,NNE,16,0.0,-999.0,74,-99.99,,,0.00,weatherlink.com 1.10,2013-05-10 06:51:00,
2013-05-10 03:06:00,64.5,56.0,30.10,NNE,24,2.0,-999.0,75,-99.99,,,0.00,weatherlink.com 1.10,2013-05-10 07:06:00,
2013-05-10 03:21:00,64.6,55.0,30.09,North,353,0.0,-999.0,72,-99.99,,,0.00,weatherlink.com 1.10,2013-05-10 07:21:00,
2013-05-10 03:36:00,65.6,55.0,30.09,NNW,348,0.0,-999.0,68,-99.99,,,0.00,weatherlink.com 1.10,2013-05-10 07:36:00,
2013-05-10 03:51:00,66.0,54.0,30.09,NNW,340,1.0,-999.0,66,-99.99,,,0.00,weatherlink.com 1.10,2013-05-10 07:51:00,
2013-05-10 04:06:00,66.6,53.0,30.08,North,5,1.0,-999.0,63,-99.99,,,0.00,weatherlink.com 1.10,2013-05-10 08:06:00,
2013-05-10 04:21:00,66.9,54.0,30.08,NNE,16,3.0,-999.0,63,-99.99,,,0.00,weatherlink.com 1.10,2013-05-10 08:21:00,
2013-05-10 04:36:00,67.3,53.0,30.08,NNE,30,0.0,-999.0,61,-99.99,,,0.00,weatherlink.com 1.10,2013-05-10 08:36:00,
2013-05-10 04:51:00,67.4,53.0,30.07,North,9,2.0,-999.0,61,-99.99,,,0.00,weatherlink.com 1.10,2013-05-10 08:51:00,
2013-05-10 05:06:00,66.2,54.0,30.07,NNE,12,0.0,-999.0,64,-99.99,,,0.00,weatherlink.com 1.10,2013-05-10 09:06:00,
2013-05-10 05:21:00,64.9,54.0,30.07,NNE,27,2.0,-999.0,68,-99.99,,,0.00,weatherlink.com 1.10,2013-05-10 09:21:00,
2013-05-10 05:36:00,64.7,54.0,30.07,NE,37,1.0,-999.0,68,-99.99,,,0.00,weatherlink.com 1.10,2013-05-10 09:36:00,
2013-05-10 05:51:00,64.5,54.0,30.07,NE,40,1.0,-999.0,69,-99.99,,,0.00,weatherlink.com 1.10,2013-05-10 09:51:00,
2013-05-10 06:06:00,64.3,54.0,30.07,NE,44,1.0,-999.0,69,-99.99,,,0.00,weatherlink.com 1.10,2013-05-10 10:06:00,
2013-05-10 06:21:00,64.8,54.0,30.07,ENE,64,2.0,-999.0,68,-99.99,,,0.00,weatherlink.com 1.10,2013-05-10 10:21:00,
2013-05-10 06:36:00,65.1,54.0,30.08,ENE,58,2.0,-999.0,67,-99.99,,,0.00,weatherlink.com 1.10,2013-05-10 10:36:00,
2013-05-10 06:51:00,65.4,54.0,30.08,ENE,57,1.0,-999.0,66,-99.99,,,0.00,weatherlink.com 1.10,2013-05-10 10:51:00,
2013-05-10 07:06:00,65.4,54.0,30.08,ENE,57,2.0,-999.0,66,-99.99,,,0.00,weatherlink.com 1.10,2013-05-10 11:06:00,
2013-05-10 07:21:00,65.2,54.0,30.07,NE,43,1.0,-999.0,67,-99.99,,,0.00,weatherlink.com 1.10,2013-05-10 11:21:00,
2013-05-10 07:36:00,65.7,54.0,30.08,NE,43,0.0,-999.0,66,-99.99,,,0.00,weatherlink.com 1.10,2013-05-10 11:36:00,
2013-05-10 07:51:00,65.8,54.0,30.08,NE,43,1.0,-999.0,66,-99.99,,,0.00,weatherlink.com 1.10,2013-05-10 11:51:00,
2013-05-10 08:06:00,65.9,54.0,30.08,NE,46,0.0,-999.0,66,-99.99,,,0.00,weatherlink.com 1.10,2013-05-10 12:06:00,
2013-05-10 08:21:00,66.0,54.0,30.09,NE,46,0.0,-999.0,66,-99.99,,,0.00,weatherlink.com 1.10,2013-05-10 12:21:00,
2013-05-10 08:36:00,66.3,54.0,30.09,NE,46,1.0,-999.0,65,-99.99,,,0.00,weatherlink.com 1.10,2013-05-10 12:36:00,
2013-05-10 08:51:00,66.5,54.0,30.09,SSW,194,1.0,-999.0,64,-99.99,,,0.00,weatherlink.com 1.10,2013-05-10 12:51:00,
2013-05-10 09:06:00,66.6,55.0,30.09,SSE,153,1.0,-999.0,67,-99.99,,,0.00,weatherlink.com 1.10,2013-05-10 13:06:00,
2013-05-10 09:21:00,67.2,56.0,30.09,SE,130,1.0,-999.0,67,-99.99,,,0.00,weatherlink.com 1.10,2013-05-10 13:21:00,
2013-05-10 09:36:00,67.4,56.0,30.09,SSE,163,0.0,-999.0,67,-99.99,,,0.00,weatherlink.com 1.10,2013-05-10 13:36:00,
2013-05-10 09:51:00,67.4,56.0,30.09,SE,130,1.0,-999.0,67,-99.99,,,0.00,weatherlink.com 1.10,2013-05-10 13:51:00,
2013-05-10 10:06:00,67.8,56.0,30.09,SSW,198,4.0,-999.0,66,-99.99,,,0.00,weatherlink.com 1.10,2013-05-10 14:06:00,
2013-05-10 10:21:00,68.2,57.0,30.09,South,186,1.0,-999.0,68,-99.99,,,0.00,weatherlink.com 1.10,2013-05-10 14:21:00,
2013-05-10 10:36:00,69.1,59.0,30.09,SSE,164,3.0,-999.0,70,-99.99,,,0.00,weatherlink.com 1.10,2013-05-10 14:36:00,
2013-05-10 10:51:00,69.7,60.0,30.09,South,172,3.0,-999.0,70,-99.99,,,0.00,weatherlink.com 1.10,2013-05-10 14:51:00,
2013-05-10 11:06:00,69.9,59.0,30.09,South,170,2.0,-999.0,69,-99.99,,,0.00,weatherlink.com 1.10,2013-05-10 15:06:00,
2013-05-10 11:21:00,70.7,60.0,30.09,SSE,158,1.0,-999.0,69,-99.99,,,0.00,weatherlink.com 1.10,2013-05-10 15:21:00,
2013-05-10 11:36:00,70.6,60.0,30.10,SE,143,8.0,-999.0,70,-99.99,,,0.00,weatherlink.com 1.10,2013-05-10 15:36:00,
2013-05-10 11:51:00,71.1,60.0,30.10,SW,233,9.0,-999.0,68,-99.99,,,0.00,weatherlink.com 1.10,2013-05-10 15:51:00,
2013-05-10 12:06:00,72.0,58.0,30.10,SSE,151,4.0,-999.0,62,-99.99,,,0.00,weatherlink.com 1.10,2013-05-10 16:06:00,
2013-05-10 12:21:00,71.9,58.0,30.10,SSE,153,9.0,-999.0,62,-99.99,,,0.00,weatherlink.com 1.10,2013-05-10 16:21:00,
2013-05-10 12:36:00,71.3,58.0,30.10,SSE,162,7.0,-999.0,63,-99.99,,,0.00,weatherlink.com 1.10,2013-05-10 16:36:00,
2013-05-10 12:51:00,71.4,58.0,30.09,SSE,152,4.0,-999.0,62,-99.99,,,0.00,weatherlink.com 1.10,2013-05-10 16:51:00,
2013-05-10 13:06:00,71.9,59.0,30.08,SSE,158,6.0,-999.0,64,-99.99,,,0.00,weatherlink.com 1.10,2013-05-10 17:06:00,
2013-05-10 13:21:00,73.2,59.0,30.08,SSW,200,2.0,-999.0,61,-99.99,,,0.00,weatherlink.com 1.10,2013-05-10 17:21:00,
2013-05-10 13:36:00,73.5,59.0,30.08,WSW,248,4.0,-999.0,61,-99.99,,,0.00,weatherlink.com 1.10,2013-05-10 17:36:00,
2013-05-10 13:51:00,72.6,58.0,30.09,SSE,163,9.0,-999.0,61,-99.99,,,0.00,weatherlink.com 1.10,2013-05-10 17:51:00,
2013-05-10 14:06:00,73.1,58.0,30.09,South,191,17.0,-999.0,59,-99.99,,,0.00,weatherlink.com 1.10,2013-05-10 18:06:00,
2013-05-10 14:21:00,72.5,58.0,30.07,South,185,10.0,-999.0,61,-99.99,,,0.00,weatherlink.com 1.10,2013-05-10 18:21:00,
2013-05-10 14:36:00,72.9,58.0,30.07,SSE,161,6.0,-999.0,60,-99.99,,,0.00,weatherlink.com 1.10,2013-05-10 18:36:00,
2013-05-10 14:51:00,71.5,59.0,30.06,South,186,3.0,-999.0,64,-99.99,,,0.00,weatherlink.com 1.10,2013-05-10 18:51:00,
2013-05-10 15:06:00,71.6,60.0,30.06,West,264,3.0,-999.0,67,-99.99,,,0.00,weatherlink.com 1.10,2013-05-10 19:06:00,
2013-05-10 15:21:00,71.9,60.0,30.04,SSE,162,3.0,-999.0,66,-99.99,,,0.00,weatherlink.com 1.10,2013-05-10 19:21:00,
2013-05-10 15:36:00,71.2,59.0,30.04,ESE,122,9.0,-999.0,66,-99.99,,,0.00,weatherlink.com 1.10,2013-05-10 19:36:00,
2013-05-10 15:51:00,72.0,60.0,30.04,South,169,7.0,-999.0,66,-99.99,,,0.00,weatherlink.com 1.10,2013-05-10 19:51:00,
2013-05-10 16:06:00,71.8,59.0,30.04,SSW,200,6.0,-999.0,65,-99.99,,,0.00,weatherlink.com 1.10,2013-05-10 20:06:00,
2013-05-10 16:21:00,71.4,59.0,30.04,SSW,193,10.0,-999.0,65,-99.99,,,0.00,weatherlink.com 1.10,2013-05-10 20:21:00,
2013-05-10 16:36:00,71.4,59.0,30.03,SE,145,6.0,-999.0,65,-99.99,,,0.00,weatherlink.com 1.10,2013-05-10 20:36:00,
2013-05-10 16:51:00,71.1,59.0,30.02,SW,219,6.0,-999.0,65,-99.99,,,0.00,weatherlink.com 1.10,2013-05-10 20:51:00,
2013-05-10 17:06:00,70.9,60.0,30.02,SSE,153,2.0,-999.0,68,-99.99,,,0.00,weatherlink.com 1.10,2013-05-10 21:06:00,
2013-05-10 17:21:00,70.9,60.0,30.02,SSE,156,3.0,-999.0,69,-99.99,,,0.00,weatherlink.com 1.10,2013-05-10 21:21:00,
2013-05-10 17:36:00,70.4,60.0,30.02,SSW,203,1.0,-999.0,70,-99.99,,,0.00,weatherlink.com 1.10,2013-05-10 21:36:00,
2013-05-10 17:51:00,69.9,60.0,30.02,South,172,5.0,-999.0,71,-99.99,,,0.00,weatherlink.com 1.10,2013-05-10 21:51:00,
2013-05-10 18:06:00,69.4,60.0,30.01,SSW,197,3.0,-999.0,73,-99.99,,,0.00,weatherlink.com 1.10,2013-05-10 22:06:00,
2013-05-10 18:21:00,69.2,60.0,30.01,SSW,194,3.0,-999.0,73,-99.99,,,0.00,weatherlink.com 1.10,2013-05-10 22:21:00,
2013-05-10 18:36:00,69.0,60.0,30.01,SSE,148,2.0,-999.0,74,-99.99,,,0.00,weatherlink.com 1.10,2013-05-10 22:36:00,
2013-05-10 18:51:00,68.9,61.0,30.01,SE,130,1.0,-999.0,75,-99.99,,,0.00,weatherlink.com 1.10,2013-05-10 22:51:00,
2013-05-10 19:06:00,68.6,60.0,30.00,NNE,32,1.0,-999.0,74,-99.99,,,0.00,weatherlink.com 1.10,2013-05-10 23:06:00,
2013-05-10 19:21:00,68.2,60.0,30.00,WSW,251,2.0,-999.0,76,-99.99,,,0.00,weatherlink.com 1.10,2013-05-10 23:21:00,
2013-05-10 19:36:00,67.8,60.0,30.00,SE,130,4.0,-999.0,77,-99.99,,,0.00,weatherlink.com 1.10,2013-05-10 23:36:00,
2013-05-10 19:51:00,67.5,60.0,29.99,South,184,4.0,-999.0,78,-99.99,,,0.00,weatherlink.com 1.10,2013-05-10 23:51:00,
2013-05-10 20:06:00,67.3,60.0,29.99,South,172,4.0,-999.0,77,-99.99,,,0.00,weatherlink.com 1.10,2013-05-11 00:06:00,
2013-05-10 20:21:00,67.1,60.0,30.00,SSE,158,0.0,-999.0,78,-99.99,,,0.00,weatherlink.com 1.10,2013-05-11 00:21:00,
2013-05-10 20:36:00,66.8,60.0,30.00,SSE,155,2.0,-999.0,79,-99.99,,,0.00,weatherlink.com 1.10,2013-05-11 00:36:00,
2013-05-10 20:51:00,66.7,60.0,30.01,SSE,158,2.0,-999.0,78,-99.99,,,0.00,weatherlink.com 1.10,2013-05-11 00:51:00,
2013-05-10 21:06:00,66.7,60.0,30.00,SW,235,0.0,-999.0,78,-99.99,,,0.00,weatherlink.com 1.10,2013-05-11 01:06:00,
2013-05-10 21:21:00,66.5,60.0,30.00,SSE,165,2.0,-999.0,79,-99.99,,,0.00,weatherlink.com 1.10,2013-05-11 01:21:00,
2013-05-10 21:36:00,66.5,59.0,30.00,ESE,121,3.0,-999.0,78,-99.99,,,0.00,weatherlink.com 1.10,2013-05-11 01:36:00,
2013-05-10 21:51:00,66.2,60.0,30.01,South,172,2.0,-999.0,79,-99.99,,,0.00,weatherlink.com 1.10,2013-05-11 01:51:00,
2013-05-10 22:06:00,66.1,59.0,30.01,South,172,3.0,-999.0,78,-99.99,,,0.00,weatherlink.com 1.10,2013-05-11 02:06:00,
2013-05-10 22:21:00,66.3,59.0,30.01,South,174,2.0,-999.0,77,-99.99,,,0.00,weatherlink.com 1.10,2013-05-11 02:21:00,
2013-05-10 22:36:00,66.3,59.0,30.00,SE,144,1.0,-999.0,77,-99.99,,,0.00,weatherlink.com 1.10,2013-05-11 02:36:00,
2013-05-10 22:51:00,66.1,59.0,30.00,West,281,0.0,-999.0,77,-99.99,,,0.00,weatherlink.com 1.10,2013-05-11 02:51:00,
2013-05-10 23:06:00,66.0,59.0,30.00,South,183,2.0,-999.0,78,-99.99,,,0.00,weatherlink.com 1.10,2013-05-11 03:06:00,
2013-05-10 23:21:00,65.9,59.0,30.00,SE,140,1.0,-999.0,79,-99.99,,,0.00,weatherlink.com 1.10,2013-05-11 03:21:00,
2013-05-10 23:36:00,65.6,59.0,30.00,SE,136,0.0,-999.0,80,-99.99,,,0.00,weatherlink.com 1.10,2013-05-11 03:36:00,
2013-05-10 23:51:00,65.4,59.0,30.00,SSE,164,2.0,-999.0,80,-99.99,,,0.00,weatherlink.com 1.10,2013-05-11 03:51:00,